createdAt,value
2019-02-24T00:01:28.004Z,20.62
2019-02-24T00:03:59.332Z,21.83
2019-02-24T00:06:30.712Z,29.63
2019-02-24T00:09:02.114Z,19.57
2019-02-24T00:11:35.019Z,23.43
2019-02-24T00:14:06.270Z,28.83
2019-02-24T00:16:37.713Z,22.45
2019-02-24T00:19:09.150Z,21.55
2019-02-24T00:21:40.618Z,26.80
2019-02-24T00:24:11.859Z,24.45
2019-02-24T00:26:43.299Z,20.12
2019-02-24T00:29:14.678Z,22.27
2019-02-24T00:31:45.992Z,23.12
2019-02-24T00:34:17.447Z,20.75
2019-02-24T00:36:48.911Z,20.57
2019-02-24T00:39:20.577Z,26.65
2019-02-24T00:41:52.005Z,31.00
2019-02-24T00:44:23.393Z,22.35
2019-02-24T00:46:54.714Z,26.23
2019-02-24T00:49:26.053Z,28.35
2019-02-24T00:51:57.427Z,22.45
2019-02-24T00:54:28.778Z,30.05
2019-02-24T00:57:00.099Z,32.40
2019-02-24T00:59:31.406Z,34.98
2019-02-24T01:02:02.842Z,25.05
2019-02-24T01:04:34.336Z,27.52
2019-02-24T01:07:06.813Z,27.57
2019-02-24T01:09:38.138Z,26.62
2019-02-24T01:12:09.474Z,36.73
2019-02-24T01:14:41.993Z,26.40
2019-02-24T01:17:13.440Z,28.30
2019-02-24T01:19:44.881Z,24.70
2019-02-24T01:22:16.355Z,38.28
2019-02-24T01:24:47.776Z,32.55
2019-02-24T01:27:19.225Z,30.80
2019-02-24T01:29:50.710Z,31.68
2019-02-24T01:32:22.152Z,35.30
2019-02-24T01:34:53.611Z,37.63
2019-02-24T01:37:25.055Z,35.85
2019-02-24T01:39:56.487Z,47.05
2019-02-24T01:42:27.819Z,43.52
2019-02-24T01:44:59.295Z,32.42
2019-02-24T01:47:30.651Z,30.75
2019-02-24T01:50:02.131Z,29.23
2019-02-24T01:52:33.609Z,29.67
2019-02-24T01:55:04.991Z,31.42
2019-02-24T01:57:36.471Z,30.23
2019-02-24T02:00:10.215Z,34.30
2019-02-24T02:02:41.870Z,29.50
2019-02-24T02:05:13.247Z,31.70
2019-02-24T02:07:44.586Z,36.85
2019-02-24T02:10:15.853Z,36.50
2019-02-24T02:12:47.288Z,38.15
2019-02-24T02:15:18.690Z,28.42
2019-02-24T02:17:50.015Z,28.75
2019-02-24T02:20:21.457Z,30.90
2019-02-24T02:22:54.008Z,25.63
2019-02-24T02:25:25.340Z,30.75
2019-02-24T02:27:56.689Z,34.40
2019-02-24T02:30:28.059Z,32.13
2019-02-24T02:32:59.510Z,36.10
2019-02-24T02:35:30.752Z,39.78
2019-02-24T02:38:02.106Z,60.23
2019-02-24T02:40:33.468Z,45.98
2019-02-24T02:43:04.810Z,55.17
2019-02-24T02:45:36.082Z,42.05
2019-02-24T02:48:07.485Z,41.23
2019-02-24T02:50:38.855Z,32.23
2019-02-24T02:53:10.347Z,39.48
2019-02-24T02:55:41.755Z,36.88
2019-02-24T02:58:13.207Z,32.23
2019-02-24T03:00:44.560Z,34.50
2019-02-24T03:03:15.989Z,37.83
2019-02-24T03:05:48.903Z,37.48
2019-02-24T03:08:21.793Z,35.10
2019-02-24T03:10:53.218Z,41.50
2019-02-24T03:13:24.613Z,44.93
2019-02-24T03:15:55.947Z,67.67
2019-02-24T03:18:27.291Z,56.60
2019-02-24T03:20:58.793Z,71.12
2019-02-24T03:23:30.141Z,63.23
2019-02-24T03:26:01.607Z,68.75
2019-02-24T03:28:34.034Z,74.70
2019-02-24T03:31:05.438Z,75.80
2019-02-24T03:33:36.815Z,68.37
2019-02-24T03:36:08.430Z,84.75
2019-02-24T03:38:39.915Z,78.50
2019-02-24T03:41:11.494Z,80.97
2019-02-24T03:43:42.990Z,64.42
2019-02-24T03:46:14.496Z,57.78
2019-02-24T03:48:45.942Z,66.72
2019-02-24T03:51:17.320Z,57.73
2019-02-24T03:53:48.895Z,52.85
2019-02-24T03:56:20.346Z,62.65
2019-02-24T03:58:51.783Z,64.42
2019-02-24T04:01:23.376Z,62.70
2019-02-24T04:03:54.739Z,71.80
2019-02-24T04:06:26.054Z,76.40
2019-02-24T04:08:57.468Z,77.37
2019-02-24T04:11:28.810Z,65.22
2019-02-24T04:14:00.290Z,71.12
2019-02-24T04:16:31.857Z,71.95
2019-02-24T04:19:03.238Z,85.03
2019-02-24T04:21:34.867Z,83.15
2019-02-24T04:24:06.283Z,94.55
2019-02-24T04:26:37.667Z,118.87
2019-02-24T04:29:09.091Z,180.10
2019-02-24T04:31:40.562Z,145.10
2019-02-24T04:34:11.997Z,198.35
2019-02-24T04:36:43.446Z,200.00
2019-02-24T04:39:14.934Z,212.65
2019-02-24T04:41:46.265Z,217.07
2019-02-24T04:44:17.584Z,191.30
2019-02-24T04:46:49.058Z,199.68
2019-02-24T04:49:20.497Z,231.65
2019-02-24T04:51:51.983Z,229.93
2019-02-24T04:56:54.011Z,223.53
2019-02-24T04:59:34.612Z,219.45
2019-02-24T05:01:58.529Z,199.87
2019-02-24T05:04:29.947Z,154.15
2019-02-24T05:07:01.474Z,124.05
2019-02-24T05:09:33.899Z,67.63
2019-02-24T05:12:05.392Z,51.55
2019-02-24T05:14:36.825Z,44.88
2019-02-24T05:17:08.206Z,34.38
2019-02-24T05:19:39.629Z,38.40
2019-02-24T05:22:11.091Z,35.58
2019-02-24T05:24:42.532Z,29.85
2019-02-24T05:27:13.983Z,38.05
2019-02-24T05:29:46.568Z,39.93
2019-02-24T05:32:17.948Z,53.05
2019-02-24T05:34:49.361Z,53.75
2019-02-24T05:37:20.849Z,67.08
2019-02-24T05:39:52.200Z,61.45
2019-02-24T05:42:23.596Z,55.00
2019-02-24T05:44:55.095Z,46.83
2019-02-24T05:47:26.501Z,62.05
2019-02-24T05:49:57.965Z,52.67
2019-02-24T05:52:29.296Z,62.15
2019-02-24T05:55:00.743Z,65.37
2019-02-24T05:57:32.073Z,55.38
2019-02-24T06:00:03.753Z,72.75
2019-02-24T06:02:36.335Z,51.57
2019-02-24T06:05:09.286Z,48.42
2019-02-24T06:07:40.762Z,42.33
2019-02-24T06:10:12.159Z,36.25
2019-02-24T06:12:43.495Z,25.43
2019-02-24T06:15:14.917Z,26.07
2019-02-24T06:17:46.372Z,23.27
2019-02-24T06:20:17.814Z,27.25
2019-02-24T06:22:49.274Z,24.82
2019-02-24T06:25:20.731Z,22.30
2019-02-24T06:27:52.069Z,28.10
2019-02-24T06:30:23.507Z,26.82
2019-02-24T06:32:54.949Z,30.95
2019-02-24T06:35:26.365Z,22.95
2019-02-24T06:37:57.782Z,27.98
2019-02-24T06:40:29.157Z,24.18
2019-02-24T06:43:00.667Z,20.37
2019-02-24T06:45:31.985Z,33.02
2019-02-24T06:48:03.364Z,16.90
2019-02-24T06:50:51.772Z,19.90
2019-02-24T06:53:23.118Z,16.57
2019-02-24T06:55:54.586Z,22.67
2019-02-24T06:58:25.919Z,27.20
2019-02-24T07:00:57.259Z,18.25
2019-02-24T07:03:29.780Z,16.60
2019-02-24T07:06:01.234Z,16.32
2019-02-24T07:08:32.605Z,15.95
2019-02-24T07:11:04.094Z,22.65
2019-02-24T07:13:35.595Z,14.90
2019-02-24T07:16:07.009Z,17.17
2019-02-24T07:18:38.318Z,13.03
2019-02-24T07:21:09.714Z,14.63
2019-02-24T07:23:41.159Z,17.67
2019-02-24T07:26:12.490Z,19.15
2019-02-24T07:28:43.830Z,16.05
2019-02-24T07:31:15.323Z,17.98
2019-02-24T07:33:46.765Z,22.62
2019-02-24T07:36:18.102Z,25.57
2019-02-24T07:38:49.559Z,22.60
2019-02-24T07:41:21.010Z,22.67
2019-02-24T07:43:52.323Z,32.88
2019-02-24T07:46:23.649Z,15.63
2019-02-24T07:48:55.067Z,24.27
2019-02-24T07:51:26.553Z,24.32
2019-02-24T07:53:57.901Z,35.85
2019-02-24T07:56:29.440Z,40.90
2019-02-24T07:59:00.768Z,45.25
2019-02-24T08:01:32.159Z,31.57
2019-02-24T08:04:03.539Z,39.92
2019-02-24T08:06:35.014Z,31.23
2019-02-24T08:09:06.464Z,28.47
2019-02-24T08:11:37.952Z,31.50
2019-02-24T08:14:09.400Z,27.52
2019-02-24T08:16:40.904Z,38.13
2019-02-24T08:19:12.310Z,32.53
2019-02-24T08:21:43.817Z,30.55
2019-02-24T08:24:15.268Z,27.45
2019-02-24T08:26:46.720Z,30.50
2019-02-24T08:29:18.167Z,25.15
2019-02-24T08:31:49.539Z,30.55
2019-02-24T08:34:20.921Z,31.00
2019-02-24T08:36:52.425Z,32.95
2019-02-24T08:39:23.881Z,30.62
2019-02-24T08:41:55.315Z,28.77
2019-02-24T08:44:26.867Z,45.63
2019-02-24T08:46:58.610Z,45.00
2019-02-24T08:49:30.179Z,42.05
2019-02-24T08:52:01.619Z,47.78
2019-02-24T08:54:32.981Z,46.00
2019-02-24T08:57:04.317Z,29.57
2019-02-24T08:59:35.752Z,44.35
2019-02-24T09:02:07.206Z,31.15
2019-02-24T09:19:59.696Z,33.25
2019-02-24T09:22:31.035Z,24.98
2019-02-24T09:25:03.361Z,23.55
2019-02-24T09:27:35.091Z,17.12
2019-02-24T09:30:13.663Z,15.30
2019-02-24T09:32:45.049Z,17.15
2019-02-24T09:35:16.459Z,15.20
2019-02-24T09:37:48.013Z,18.10
2019-02-24T09:40:19.369Z,19.30
2019-02-24T09:42:51.292Z,18.82
2019-02-24T09:45:22.692Z,18.55
2019-02-24T09:47:54.038Z,28.38
2019-02-24T09:50:25.471Z,18.82
2019-02-24T09:52:56.856Z,15.05
2019-02-24T09:55:28.180Z,20.45
2019-02-24T09:57:59.544Z,20.88
2019-02-24T10:00:30.991Z,34.85
2019-02-24T10:03:02.730Z,20.32
2019-02-24T10:05:34.079Z,27.45
2019-02-24T10:08:05.415Z,27.65
2019-02-24T21:21:35.456Z,30.05
2019-02-24T21:26:55.166Z,31.90
2019-02-24T21:29:28.910Z,30.60
2019-02-24T21:32:00.240Z,41.75
2019-02-24T21:34:31.682Z,39.25
2019-02-24T21:37:03.145Z,37.08
2019-02-24T21:39:34.499Z,34.85
2019-02-24T21:42:06.065Z,50.30
2019-02-24T21:44:37.391Z,37.08
2019-02-24T21:47:08.755Z,27.17
2019-02-24T21:49:40.165Z,24.25
2019-02-24T21:52:11.687Z,49.48
2019-02-24T21:54:43.036Z,38.83
2019-02-24T21:57:14.349Z,49.20
2019-02-24T21:59:45.667Z,65.32
2019-02-24T22:02:17.129Z,49.95
2019-02-24T22:04:48.497Z,62.35
2019-02-24T22:07:19.918Z,45.85
2019-02-24T22:09:51.459Z,47.15
2019-02-24T22:12:22.709Z,69.30
2019-02-24T22:14:54.168Z,46.37
2019-02-24T22:17:25.710Z,42.23
2019-02-24T22:19:57.056Z,26.93
2019-02-24T22:22:28.525Z,32.58
2019-02-24T22:24:59.963Z,29.07
2019-02-24T22:27:31.423Z,37.80
2019-02-24T22:30:02.868Z,31.02
2019-02-24T22:32:34.416Z,34.55
2019-02-24T22:35:06.796Z,28.90
2019-02-24T22:37:38.231Z,23.40
2019-02-24T22:40:11.801Z,32.00
2019-02-24T22:42:44.202Z,32.25
2019-02-24T22:45:17.360Z,25.88
2019-02-24T22:47:48.856Z,23.12
2019-02-24T22:50:20.219Z,21.85
2019-02-24T22:52:51.552Z,20.90
2019-02-24T22:55:23.001Z,19.87
2019-02-24T22:57:54.432Z,28.00
2019-02-24T23:00:54.571Z,27.48
2019-02-24T23:03:30.240Z,24.43
2019-02-24T23:06:02.982Z,25.68
2019-02-24T23:08:34.350Z,23.65
2019-02-24T23:11:05.800Z,22.85
2019-02-24T23:13:39.269Z,18.15
2019-02-24T23:16:10.341Z,20.50
2019-02-24T23:18:41.796Z,23.32
2019-02-24T23:21:13.201Z,27.60
2019-02-24T23:23:44.592Z,22.05
2019-02-24T23:26:15.902Z,18.73
2019-02-24T23:28:47.246Z,22.98
2019-02-24T23:31:18.731Z,23.30
2019-02-24T23:33:50.005Z,24.90
2019-02-24T23:36:21.447Z,30.23
2019-02-24T23:38:53.507Z,25.68
2019-02-24T23:41:24.847Z,24.95
2019-02-24T23:43:56.281Z,29.07
2019-02-24T23:46:27.653Z,19.05
2019-02-24T23:48:59.158Z,27.70
2019-02-24T23:51:30.671Z,38.30
2019-02-24T23:54:02.001Z,35.55
2019-02-24T23:56:33.488Z,39.10
2019-02-24T23:59:04.830Z,35.17
